sensor_id;sensor_type;location;lat;lon;timestamp;P1;durP1;ratioP1;P2;durP2;ratioP2
50695;SDS011;36665;51.786;21.594;2023-02-08T00:07:37;89.70;;;35.70;;
50695;SDS011;36665;51.786;21.594;2023-02-08T00:16:00;131.00;;;49.00;;
50695;SDS011;36665;51.786;21.594;2023-02-08T00:24:23;91.70;;;39.20;;
50695;SDS011;36665;51.786;21.594;2023-02-08T00:32:46;99.90;;;39.90;;
50695;SDS011;36665;51.786;21.594;2023-02-08T00:41:09;97.70;;;34.90;;
50695;SDS011;36665;51.786;21.594;2023-02-08T00:49:32;98.60;;;38.00;;
50695;SDS011;36665;51.786;21.594;2023-02-08T00:57:55;92.10;;;38.00;;
50695;SDS011;36665;51.786;21.594;2023-02-08T01:06:18;94.30;;;38.60;;
50695;SDS011;36665;51.786;21.594;2023-02-08T01:14:41;86.20;;;33.50;;
50695;SDS011;36665;51.786;21.594;2023-02-08T01:23:04;93.70;;;38.80;;
50695;SDS011;36665;51.786;21.594;2023-02-08T01:31:31;92.10;;;38.90;;
50695;SDS011;36665;51.786;21.594;2023-02-08T01:39:56;85.70;;;34.30;;
50695;SDS011;36665;51.786;21.594;2023-02-08T01:48:22;97.10;;;37.40;;
50695;SDS011;36665;51.786;21.594;2023-02-08T01:56:48;75.30;;;32.00;;
50695;SDS011;36665;51.786;21.594;2023-02-08T02:05:12;49.80;;;23.00;;
50695;SDS011;36665;51.786;21.594;2023-02-08T02:13:36;28.10;;;13.50;;
50695;SDS011;36665;51.786;21.594;2023-02-08T02:48:09;26.30;;;11.30;;
50695;SDS011;36665;51.786;21.594;2023-02-08T02:56:40;34.10;;;15.40;;
50695;SDS011;36665;51.786;21.594;2023-02-08T03:05:08;26.60;;;10.50;;
50695;SDS011;36665;51.786;21.594;2023-02-08T03:31:03;24.70;;;9.10;;
50695;SDS011;36665;51.786;21.594;2023-02-08T03:39:34;19.50;;;7.40;;
50695;SDS011;36665;51.786;21.594;2023-02-08T03:48:01;13.80;;;7.00;;
50695;SDS011;36665;51.786;21.594;2023-02-08T03:56:34;14.80;;;6.80;;
50695;SDS011;36665;51.786;21.594;2023-02-08T04:05:05;13.90;;;6.00;;
50695;SDS011;36665;51.786;21.594;2023-02-08T04:13:29;18.80;;;5.70;;
50695;SDS011;36665;51.786;21.594;2023-02-08T04:21:52;15.00;;;6.10;;
50695;SDS011;36665;51.786;21.594;2023-02-08T04:30:15;13.20;;;5.30;;
50695;SDS011;36665;51.786;21.594;2023-02-08T04:38:38;12.10;;;5.30;;
50695;SDS011;36665;51.786;21.594;2023-02-08T04:47:01;12.90;;;4.50;;
50695;SDS011;36665;51.786;21.594;2023-02-08T04:55:24;9.00;;;4.20;;
50695;SDS011;36665;51.786;21.594;2023-02-08T05:03:47;10.00;;;4.20;;
50695;SDS011;36665;51.786;21.594;2023-02-08T05:12:10;8.90;;;4.00;;
50695;SDS011;36665;51.786;21.594;2023-02-08T05:20:33;9.20;;;4.70;;
50695;SDS011;36665;51.786;21.594;2023-02-08T05:28:56;18.80;;;9.90;;
50695;SDS011;36665;51.786;21.594;2023-02-08T05:37:19;10.80;;;4.90;;
50695;SDS011;36665;51.786;21.594;2023-02-08T05:45:42;10.50;;;4.80;;
50695;SDS011;36665;51.786;21.594;2023-02-08T05:54:05;69.00;;;28.20;;
50695;SDS011;36665;51.786;21.594;2023-02-08T06:02:28;19.80;;;7.80;;
50695;SDS011;36665;51.786;21.594;2023-02-08T06:10:52;11.70;;;6.90;;
50695;SDS011;36665;51.786;21.594;2023-02-08T06:19:15;14.40;;;6.20;;
50695;SDS011;36665;51.786;21.594;2023-02-08T06:27:38;78.00;;;26.30;;
50695;SDS011;36665;51.786;21.594;2023-02-08T06:36:01;77.80;;;35.70;;
50695;SDS011;36665;51.786;21.594;2023-02-08T06:44:26;61.20;;;29.20;;
50695;SDS011;36665;51.786;21.594;2023-02-08T06:52:50;18.80;;;7.50;;
50695;SDS011;36665;51.786;21.594;2023-02-08T07:01:14;54.10;;;27.30;;
50695;SDS011;36665;51.786;21.594;2023-02-08T07:09:37;8.80;;;5.50;;
50695;SDS011;36665;51.786;21.594;2023-02-08T07:18:00;14.00;;;6.20;;
50695;SDS011;36665;51.786;21.594;2023-02-08T07:26:23;17.10;;;7.50;;
50695;SDS011;36665;51.786;21.594;2023-02-08T07:34:46;25.30;;;13.50;;
50695;SDS011;36665;51.786;21.594;2023-02-08T07:43:09;17.60;;;9.90;;
50695;SDS011;36665;51.786;21.594;2023-02-08T07:51:38;29.10;;;15.40;;
50695;SDS011;36665;51.786;21.594;2023-02-08T08:00:02;13.00;;;7.00;;
50695;SDS011;36665;51.786;21.594;2023-02-08T08:08:33;13.70;;;5.80;;
50695;SDS011;36665;51.786;21.594;2023-02-08T08:16:57;16.40;;;8.20;;
50695;SDS011;36665;51.786;21.594;2023-02-08T08:25:19;76.10;;;36.40;;
50695;SDS011;36665;51.786;21.594;2023-02-08T08:33:43;32.10;;;16.40;;
50695;SDS011;36665;51.786;21.594;2023-02-08T08:42:06;62.70;;;32.70;;
50695;SDS011;36665;51.786;21.594;2023-02-08T08:50:29;37.50;;;22.20;;
50695;SDS011;36665;51.786;21.594;2023-02-08T08:58:52;30.50;;;17.70;;
50695;SDS011;36665;51.786;21.594;2023-02-08T09:07:15;29.20;;;13.10;;
50695;SDS011;36665;51.786;21.594;2023-02-08T09:15:38;26.40;;;14.60;;
50695;SDS011;36665;51.786;21.594;2023-02-08T09:24:03;35.90;;;14.70;;
50695;SDS011;36665;51.786;21.594;2023-02-08T09:32:26;23.80;;;12.60;;
50695;SDS011;36665;51.786;21.594;2023-02-08T09:50:03;23.40;;;13.80;;
50695;SDS011;36665;51.786;21.594;2023-02-08T09:58:35;56.30;;;26.00;;
50695;SDS011;36665;51.786;21.594;2023-02-08T10:07:03;20.50;;;10.90;;
50695;SDS011;36665;51.786;21.594;2023-02-08T10:15:32;20.90;;;11.70;;
50695;SDS011;36665;51.786;21.594;2023-02-08T10:24:08;37.60;;;19.50;;
50695;SDS011;36665;51.786;21.594;2023-02-08T10:41:10;18.60;;;10.40;;
50695;SDS011;36665;51.786;21.594;2023-02-08T10:49:45;19.60;;;11.10;;
50695;SDS011;36665;51.786;21.594;2023-02-08T10:58:18;12.10;;;6.10;;
50695;SDS011;36665;51.786;21.594;2023-02-08T11:06:44;10.20;;;5.20;;
50695;SDS011;36665;51.786;21.594;2023-02-08T11:23:59;562.20;;;262.80;;
50695;SDS011;36665;51.786;21.594;2023-02-08T11:32:25;1999.90;;;780.40;;
50695;SDS011;36665;51.786;21.594;2023-02-08T11:40:48;502.30;;;195.10;;
50695;SDS011;36665;51.786;21.594;2023-02-08T11:49:19;775.80;;;283.10;;
50695;SDS011;36665;51.786;21.594;2023-02-08T12:24:26;100.90;;;36.10;;
50695;SDS011;36665;51.786;21.594;2023-02-08T12:42:14;89.30;;;33.80;;
50695;SDS011;36665;51.786;21.594;2023-02-08T12:59:22;40.30;;;21.80;;
50695;SDS011;36665;51.786;21.594;2023-02-08T13:07:57;40.80;;;18.80;;
50695;SDS011;36665;51.786;21.594;2023-02-08T13:16:48;43.30;;;21.30;;
50695;SDS011;36665;51.786;21.594;2023-02-08T13:25:15;9.40;;;6.30;;
50695;SDS011;36665;51.786;21.594;2023-02-08T13:33:55;9.00;;;6.60;;
50695;SDS011;36665;51.786;21.594;2023-02-08T13:42:38;11.50;;;6.90;;
50695;SDS011;36665;51.786;21.594;2023-02-08T13:51:18;6.30;;;4.40;;
50695;SDS011;36665;51.786;21.594;2023-02-08T14:08:55;8.40;;;5.50;;
50695;SDS011;36665;51.786;21.594;2023-02-08T14:17:21;7.50;;;4.50;;
50695;SDS011;36665;51.786;21.594;2023-02-08T14:25:50;7.70;;;4.90;;
50695;SDS011;36665;51.786;21.594;2023-02-08T14:34:36;7.80;;;4.30;;
50695;SDS011;36665;51.786;21.594;2023-02-08T14:43:03;12.40;;;7.20;;
50695;SDS011;36665;51.786;21.594;2023-02-08T14:51:54;37.30;;;19.60;;
50695;SDS011;36665;51.786;21.594;2023-02-08T15:00:25;28.80;;;16.40;;
50695;SDS011;36665;51.786;21.594;2023-02-08T15:08:51;21.00;;;11.80;;
50695;SDS011;36665;51.786;21.594;2023-02-08T15:17:32;59.10;;;25.80;;
50695;SDS011;36665;51.786;21.594;2023-02-08T15:26:02;40.60;;;18.40;;
50695;SDS011;36665;51.786;21.594;2023-02-08T15:34:27;14.40;;;8.00;;
50695;SDS011;36665;51.786;21.594;2023-02-08T15:42:50;16.70;;;7.20;;
50695;SDS011;36665;51.786;21.594;2023-02-08T15:51:13;25.10;;;10.50;;
50695;SDS011;36665;51.786;21.594;2023-02-08T15:59:37;32.40;;;18.70;;
50695;SDS011;36665;51.786;21.594;2023-02-08T16:08:02;100.30;;;34.60;;
50695;SDS011;36665;51.786;21.594;2023-02-08T16:25:22;197.40;;;84.30;;
50695;SDS011;36665;51.786;21.594;2023-02-08T16:34:07;292.40;;;94.60;;
50695;SDS011;36665;51.786;21.594;2023-02-08T16:42:37;21.50;;;10.70;;
50695;SDS011;36665;51.786;21.594;2023-02-08T16:51:06;26.90;;;12.90;;
50695;SDS011;36665;51.786;21.594;2023-02-08T16:59:34;62.60;;;24.10;;
50695;SDS011;36665;51.786;21.594;2023-02-08T17:07:57;71.30;;;30.20;;
50695;SDS011;36665;51.786;21.594;2023-02-08T17:16:22;63.00;;;26.90;;
50695;SDS011;36665;51.786;21.594;2023-02-08T17:24:47;155.90;;;60.80;;
50695;SDS011;36665;51.786;21.594;2023-02-08T17:33:10;65.60;;;25.70;;
50695;SDS011;36665;51.786;21.594;2023-02-08T17:41:40;246.70;;;85.70;;
50695;SDS011;36665;51.786;21.594;2023-02-08T17:50:03;247.80;;;91.00;;
50695;SDS011;36665;51.786;21.594;2023-02-08T17:58:27;170.30;;;63.40;;
50695;SDS011;36665;51.786;21.594;2023-02-08T18:06:50;135.70;;;54.20;;
50695;SDS011;36665;51.786;21.594;2023-02-08T18:15:14;96.70;;;39.40;;
50695;SDS011;36665;51.786;21.594;2023-02-08T18:23:42;122.40;;;52.40;;
50695;SDS011;36665;51.786;21.594;2023-02-08T18:32:06;79.50;;;31.20;;
50695;SDS011;36665;51.786;21.594;2023-02-08T18:40:30;82.00;;;32.20;;
50695;SDS011;36665;51.786;21.594;2023-02-08T18:48:53;125.70;;;48.80;;
50695;SDS011;36665;51.786;21.594;2023-02-08T18:57:17;132.40;;;53.50;;
50695;SDS011;36665;51.786;21.594;2023-02-08T19:05:40;181.60;;;65.10;;
50695;SDS011;36665;51.786;21.594;2023-02-08T19:14:05;145.60;;;58.30;;
50695;SDS011;36665;51.786;21.594;2023-02-08T19:22:31;125.20;;;47.70;;
50695;SDS011;36665;51.786;21.594;2023-02-08T19:31:04;1966.90;;;683.00;;
50695;SDS011;36665;51.786;21.594;2023-02-08T19:39:32;1754.10;;;587.60;;
50695;SDS011;36665;51.786;21.594;2023-02-08T19:47:55;1946.50;;;610.40;;
50695;SDS011;36665;51.786;21.594;2023-02-08T19:56:18;1972.00;;;606.60;;
50695;SDS011;36665;51.786;21.594;2023-02-08T20:04:41;683.70;;;214.00;;
50695;SDS011;36665;51.786;21.594;2023-02-08T20:13:04;605.30;;;161.90;;
50695;SDS011;36665;51.786;21.594;2023-02-08T20:21:28;277.30;;;70.80;;
50695;SDS011;36665;51.786;21.594;2023-02-08T20:29:53;455.10;;;132.10;;
50695;SDS011;36665;51.786;21.594;2023-02-08T20:38:17;501.70;;;195.00;;
50695;SDS011;36665;51.786;21.594;2023-02-08T20:46:40;220.10;;;84.70;;
50695;SDS011;36665;51.786;21.594;2023-02-08T20:55:04;209.40;;;85.80;;
50695;SDS011;36665;51.786;21.594;2023-02-08T21:03:28;72.80;;;28.80;;
50695;SDS011;36665;51.786;21.594;2023-02-08T21:11:53;70.20;;;27.90;;
50695;SDS011;36665;51.786;21.594;2023-02-08T21:20:17;62.00;;;22.60;;
50695;SDS011;36665;51.786;21.594;2023-02-08T21:28:41;78.00;;;28.70;;
50695;SDS011;36665;51.786;21.594;2023-02-08T21:37:05;71.70;;;26.70;;
50695;SDS011;36665;51.786;21.594;2023-02-08T21:45:28;103.90;;;37.40;;
50695;SDS011;36665;51.786;21.594;2023-02-08T21:53:52;153.90;;;55.70;;
50695;SDS011;36665;51.786;21.594;2023-02-08T22:02:34;89.20;;;30.90;;
50695;SDS011;36665;51.786;21.594;2023-02-08T22:10:58;67.20;;;25.20;;
50695;SDS011;36665;51.786;21.594;2023-02-08T22:19:26;39.70;;;15.90;;
50695;SDS011;36665;51.786;21.594;2023-02-08T22:27:49;63.50;;;24.10;;
50695;SDS011;36665;51.786;21.594;2023-02-08T22:36:12;65.00;;;23.10;;
50695;SDS011;36665;51.786;21.594;2023-02-08T22:44:36;51.50;;;20.20;;
50695;SDS011;36665;51.786;21.594;2023-02-08T22:53:00;69.50;;;22.40;;
50695;SDS011;36665;51.786;21.594;2023-02-08T23:01:23;69.50;;;26.60;;
50695;SDS011;36665;51.786;21.594;2023-02-08T23:09:46;69.50;;;33.00;;
50695;SDS011;36665;51.786;21.594;2023-02-08T23:18:09;54.20;;;20.90;;
50695;SDS011;36665;51.786;21.594;2023-02-08T23:26:32;43.00;;;18.50;;
50695;SDS011;36665;51.786;21.594;2023-02-08T23:34:55;43.60;;;19.30;;
50695;SDS011;36665;51.786;21.594;2023-02-08T23:43:18;56.60;;;23.10;;
50695;SDS011;36665;51.786;21.594;2023-02-08T23:51:41;38.40;;;17.30;;
